createdAt,value
2018-07-07T00:00:19.747Z,45.16
2018-07-07T00:01:19.752Z,46.60
2018-07-07T00:02:19.774Z,46.00
2018-07-07T00:03:19.729Z,46.29
2018-07-07T00:04:19.722Z,45.16
2018-07-07T00:05:19.720Z,45.26
2018-07-07T00:06:19.700Z,47.63
2018-07-07T00:07:19.698Z,46.67
2018-07-07T00:08:19.687Z,46.19
2018-07-07T00:09:19.676Z,46.31
2018-07-07T00:10:19.704Z,46.39
2018-07-07T00:11:19.657Z,45.72
2018-07-07T00:12:19.635Z,45.72
2018-07-07T00:13:19.637Z,45.23
2018-07-07T00:14:19.623Z,46.96
2018-07-07T00:15:19.608Z,46.58
2018-07-07T00:16:19.604Z,46.86
2018-07-07T00:17:19.589Z,47.06
2018-07-07T00:18:19.628Z,45.90
2018-07-07T00:19:19.607Z,46.10
2018-07-07T00:20:19.565Z,46.39
2018-07-07T00:21:19.557Z,45.14
2018-07-07T00:22:19.561Z,45.62
2018-07-07T00:23:19.677Z,45.81
2018-07-07T00:24:19.536Z,46.58
2018-07-07T00:25:19.526Z,46.55
2018-07-07T00:26:19.517Z,47.61
2018-07-07T00:27:19.603Z,47.42
2018-07-07T00:28:19.486Z,48.09
2018-07-07T00:29:19.541Z,47.80
2018-07-07T00:30:19.481Z,47.99
2018-07-07T00:31:19.473Z,48.57
2018-07-07T00:32:19.448Z,48.57
2018-07-07T00:33:19.456Z,47.80
2018-07-07T00:34:19.431Z,48.38
2018-07-07T00:35:19.448Z,48.09
2018-07-07T00:36:19.417Z,48.47
2018-07-07T00:37:19.411Z,48.66
2018-07-07T00:38:19.401Z,48.47
2018-07-07T00:39:19.418Z,48.57
2018-07-07T00:40:19.393Z,48.47
2018-07-07T00:41:19.440Z,48.18
2018-07-07T00:42:19.416Z,47.80
2018-07-07T00:43:19.344Z,47.89
2018-07-07T00:44:19.344Z,48.28
2018-07-07T00:45:19.356Z,48.47
2018-07-07T00:46:19.345Z,48.47
2018-07-07T00:47:19.307Z,49.81
2018-07-07T00:48:19.353Z,48.73
2018-07-07T00:49:19.290Z,48.95
2018-07-07T00:50:19.302Z,48.64
2018-07-07T00:51:19.321Z,48.35
2018-07-07T00:52:19.266Z,48.44
2018-07-07T00:53:19.248Z,48.83
2018-07-07T00:54:20.107Z,49.02
2018-07-07T00:55:19.237Z,48.73
2018-07-07T00:56:19.259Z,49.31
2018-07-07T00:57:19.212Z,49.02
2018-07-07T00:58:19.200Z,49.79
2018-07-07T00:59:20.044Z,50.26
2018-07-07T01:00:19.171Z,50.26
2018-07-07T01:01:19.575Z,49.60
2018-07-07T01:02:20.043Z,49.79
2018-07-07T01:03:19.245Z,49.48
2018-07-07T01:04:19.136Z,49.00
2018-07-07T01:05:19.146Z,49.09
2018-07-07T01:06:19.129Z,48.90
2018-07-07T01:07:19.190Z,48.52
2018-07-07T01:08:19.100Z,48.42
2018-07-07T01:09:19.239Z,48.61
2018-07-07T01:10:19.092Z,49.09
2018-07-07T01:11:19.092Z,49.00
2018-07-07T01:12:19.112Z,48.80
2018-07-07T01:13:19.047Z,48.80
2018-07-07T01:14:19.044Z,48.52
2018-07-07T01:15:19.030Z,48.61
2018-07-07T01:16:19.028Z,48.61
2018-07-07T01:17:19.010Z,49.19
2018-07-07T01:18:19.017Z,48.90
2018-07-07T01:19:19.191Z,48.90
2018-07-07T01:20:18.987Z,49.57
2018-07-07T01:21:18.968Z,49.57
2018-07-07T01:22:18.962Z,50.15
2018-07-07T01:23:18.942Z,51.07
2018-07-07T01:24:18.939Z,51.36
2018-07-07T01:25:18.929Z,51.17
2018-07-07T01:26:18.922Z,51.84
2018-07-07T01:27:18.910Z,52.32
2018-07-07T01:28:18.893Z,52.03
2018-07-07T01:29:18.892Z,51.27
2018-07-07T01:30:18.904Z,52.32
2018-07-07T01:31:18.861Z,52.20
2018-07-07T01:32:18.857Z,52.10
2018-07-07T01:33:18.842Z,52.01
2018-07-07T01:34:18.849Z,52.10
2018-07-07T01:35:18.898Z,52.10
2018-07-07T01:36:18.813Z,52.10
2018-07-07T01:37:18.832Z,52.77
2018-07-07T01:38:18.788Z,52.67
2018-07-07T01:39:18.777Z,52.39
2018-07-07T01:40:18.774Z,52.87
2018-07-07T01:41:18.830Z,52.87
2018-07-07T01:42:18.738Z,53.63
2018-07-07T01:43:18.746Z,52.67
2018-07-07T01:44:18.725Z,52.67
2018-07-07T01:45:18.706Z,52.58
2018-07-07T01:46:18.705Z,52.96
2018-07-07T01:47:18.828Z,52.48
2018-07-07T01:48:18.708Z,52.29
2018-07-07T01:49:18.731Z,52.29
2018-07-07T01:50:18.660Z,52.20
2018-07-07T01:51:18.657Z,53.63
2018-07-07T01:52:18.648Z,54.11
2018-07-07T01:53:18.643Z,53.73
2018-07-07T01:54:18.636Z,56.60
2018-07-07T01:55:18.601Z,55.93
2018-07-07T01:56:18.587Z,54.97
2018-07-07T01:57:18.617Z,55.07
2018-07-07T01:58:18.574Z,55.35
2018-07-07T01:59:19.596Z,55.54
2018-07-07T02:00:18.554Z,55.07
2018-07-07T02:01:18.553Z,54.88
2018-07-07T02:02:18.593Z,54.21
2018-07-07T02:03:18.522Z,53.92
2018-07-07T02:04:18.485Z,54.21
2018-07-07T02:05:18.484Z,54.21
2018-07-07T02:06:18.506Z,53.73
2018-07-07T02:07:18.476Z,53.73
2018-07-07T02:08:18.478Z,53.44
2018-07-07T02:09:18.500Z,53.63
2018-07-07T02:10:18.499Z,53.34
2018-07-07T02:11:18.450Z,53.53
2018-07-07T02:12:18.444Z,53.44
2018-07-07T02:13:18.402Z,53.44
2018-07-07T02:14:18.401Z,53.53
2018-07-07T02:15:18.382Z,53.06
2018-07-07T02:16:18.375Z,53.06
2018-07-07T02:17:18.435Z,52.77
2018-07-07T02:18:18.342Z,53.06
2018-07-07T02:19:18.347Z,52.58
2018-07-07T02:20:18.319Z,52.58
2018-07-07T02:21:19.216Z,52.48
2018-07-07T02:22:18.603Z,52.87
2018-07-07T02:23:18.290Z,52.58
2018-07-07T02:24:18.278Z,53.06
2018-07-07T02:25:18.284Z,53.06
2018-07-07T02:26:18.256Z,52.96
2018-07-07T02:27:18.243Z,53.06
2018-07-07T02:28:18.406Z,53.44
2018-07-07T02:29:18.219Z,53.82
2018-07-07T02:30:18.211Z,54.39
2018-07-07T02:31:18.189Z,54.94
2018-07-07T02:32:18.179Z,54.85
2018-07-07T02:33:18.316Z,54.27
2018-07-07T02:34:18.206Z,54.75
2018-07-07T02:35:18.170Z,54.94
2018-07-07T02:36:19.074Z,54.66
2018-07-07T02:37:18.127Z,54.85
2018-07-07T02:38:18.130Z,54.75
2018-07-07T02:39:18.155Z,54.56
2018-07-07T02:40:18.095Z,54.18
2018-07-07T02:41:18.157Z,54.18
2018-07-07T02:42:18.083Z,54.37
2018-07-07T02:43:18.100Z,54.18
2018-07-07T02:44:18.056Z,53.99
2018-07-07T02:45:18.040Z,53.89
2018-07-07T02:46:18.069Z,54.75
2018-07-07T02:47:18.029Z,54.75
2018-07-07T02:48:18.001Z,55.52
2018-07-07T02:49:17.994Z,56.57
2018-07-07T02:50:17.998Z,56.67
2018-07-07T02:51:18.021Z,55.90
2018-07-07T02:52:17.953Z,55.52
2018-07-07T02:53:17.950Z,56.18
2018-07-07T02:54:17.955Z,56.09
2018-07-07T02:55:17.925Z,55.90
2018-07-07T02:56:17.908Z,56.57
2018-07-07T02:57:17.912Z,56.67
2018-07-07T02:58:17.969Z,56.95
2018-07-07T02:59:17.876Z,57.33
2018-07-07T03:00:17.871Z,57.53
2018-07-07T03:01:17.903Z,57.24
2018-07-07T03:02:17.993Z,56.38
2018-07-07T03:03:17.882Z,56.28
2018-07-07T03:04:17.847Z,56.67
2018-07-07T03:05:17.804Z,56.47
2018-07-07T03:06:17.824Z,56.57
2018-07-07T03:07:17.784Z,56.57
2018-07-07T03:08:17.928Z,56.67
2018-07-07T03:09:17.778Z,56.47
2018-07-07T03:10:17.755Z,56.35
2018-07-07T03:11:17.743Z,56.76
2018-07-07T03:12:17.731Z,56.57
2018-07-07T03:13:17.802Z,56.76
2018-07-07T03:14:17.781Z,55.87
2018-07-07T03:15:17.687Z,56.57
2018-07-07T03:16:17.705Z,57.02
2018-07-07T03:17:17.676Z,57.31
2018-07-07T03:18:17.655Z,58.64
2018-07-07T03:19:17.648Z,58.54
2018-07-07T03:20:17.716Z,59.41
2018-07-07T03:21:17.622Z,58.36
2018-07-07T03:22:17.613Z,58.36
2018-07-07T03:23:17.596Z,58.16
2018-07-07T03:24:17.589Z,58.64
2018-07-07T03:25:17.670Z,59.98
2018-07-07T03:26:17.563Z,59.69
2018-07-07T03:27:17.545Z,60.46
2018-07-07T03:28:17.565Z,60.46
2018-07-07T03:29:17.542Z,60.07
2018-07-07T03:30:17.524Z,59.69
2018-07-07T03:31:17.579Z,59.59
2018-07-07T03:32:17.492Z,59.41
2018-07-07T03:33:17.492Z,59.31
2018-07-07T03:34:17.468Z,58.54
2018-07-07T03:35:18.205Z,58.64
2018-07-07T03:36:17.452Z,59.41
2018-07-07T03:37:17.442Z,59.59
2018-07-07T03:38:17.451Z,59.12
2018-07-07T03:39:17.415Z,59.50
2018-07-07T03:40:17.404Z,59.12
2018-07-07T03:41:17.533Z,59.22
2018-07-07T03:42:17.433Z,59.31
2018-07-07T03:43:17.362Z,58.45
2018-07-07T03:44:17.348Z,58.54
2018-07-07T03:45:17.334Z,58.45
2018-07-07T03:46:17.326Z,59.98
2018-07-07T03:47:17.342Z,59.98
2018-07-07T03:48:17.301Z,59.88
2018-07-07T03:49:17.286Z,59.59
2018-07-07T03:50:17.282Z,59.50
2018-07-07T03:51:17.263Z,59.78
2018-07-07T03:52:17.328Z,60.07
2018-07-07T03:53:17.293Z,59.78
2018-07-07T03:54:17.228Z,59.59
2018-07-07T03:55:17.231Z,59.50
2018-07-07T03:56:18.303Z,60.36
2018-07-07T03:57:17.213Z,60.36
2018-07-07T03:58:17.230Z,59.88
2018-07-07T03:59:17.179Z,61.60
2018-07-07T04:00:17.192Z,62.27
2018-07-07T04:01:17.152Z,61.22
2018-07-07T04:02:17.147Z,61.03
2018-07-07T04:03:17.163Z,60.07
2018-07-07T04:04:17.106Z,59.59
2018-07-07T04:05:17.110Z,59.59
2018-07-07T04:06:17.090Z,59.31
2018-07-07T04:07:17.156Z,59.22
2018-07-07T04:08:17.113Z,59.41
2018-07-07T04:09:17.062Z,59.41
2018-07-07T04:10:17.152Z,59.31
2018-07-07T04:11:17.048Z,58.26
2018-07-07T04:12:17.066Z,58.64
2018-07-07T04:13:17.025Z,58.00
2018-07-07T04:14:16.996Z,58.67
2018-07-07T04:15:17.036Z,58.48
2018-07-07T04:16:17.387Z,58.07
2018-07-07T04:17:16.971Z,57.62
2018-07-07T04:18:16.981Z,57.53
2018-07-07T04:19:16.938Z,56.95
2018-07-07T04:20:16.928Z,57.24
2018-07-07T04:21:16.955Z,57.24
2018-07-07T04:22:16.907Z,57.14
2018-07-07T04:23:16.910Z,57.71
2018-07-07T04:24:16.890Z,58.76
2018-07-07T04:25:16.868Z,58.67
2018-07-07T04:26:17.163Z,58.67
2018-07-07T04:27:16.839Z,58.58
2018-07-07T04:28:16.841Z,58.36
2018-07-07T04:29:16.835Z,58.00
2018-07-07T04:30:16.809Z,57.81
2018-07-07T04:31:16.807Z,58.38
2018-07-07T04:32:16.795Z,58.26
2018-07-07T04:33:16.776Z,57.90
2018-07-07T04:34:16.758Z,58.10
2018-07-07T04:35:16.743Z,58.58
2018-07-07T04:36:17.155Z,58.58
2018-07-07T04:37:16.732Z,58.67
2018-07-07T04:38:16.712Z,58.48
2018-07-07T04:39:16.787Z,58.73
2018-07-07T04:40:16.686Z,60.64
2018-07-07T04:41:16.681Z,60.77
2018-07-07T04:42:16.682Z,60.68
2018-07-07T04:43:16.660Z,60.01
2018-07-07T04:44:16.683Z,60.30
2018-07-07T04:45:16.689Z,60.30
2018-07-07T04:46:16.636Z,60.01
2018-07-07T04:47:16.613Z,59.81
2018-07-07T04:48:16.648Z,60.68
2018-07-07T04:49:16.646Z,62.21
2018-07-07T04:50:16.587Z,62.11
2018-07-07T04:51:16.549Z,61.54
2018-07-07T04:52:16.574Z,61.72
2018-07-07T04:53:16.628Z,63.16
2018-07-07T04:54:16.533Z,62.21
2018-07-07T04:55:16.691Z,63.83
2018-07-07T04:56:16.524Z,64.88
2018-07-07T04:57:16.528Z,64.50
2018-07-07T04:58:16.639Z,63.93
2018-07-07T04:59:16.476Z,66.03
2018-07-07T05:00:16.464Z,65.55
2018-07-07T05:01:16.447Z,64.50
2018-07-07T05:02:16.426Z,65.45
2018-07-07T05:03:16.435Z,66.60
2018-07-07T05:04:16.430Z,66.31
2018-07-07T05:05:16.611Z,64.69
2018-07-07T05:06:16.400Z,64.40
2018-07-07T05:07:16.380Z,64.98
2018-07-07T05:08:16.380Z,64.59
2018-07-07T05:09:16.632Z,64.31
2018-07-07T05:10:16.392Z,63.35
2018-07-07T05:11:16.381Z,63.26
2018-07-07T05:12:16.321Z,62.68
2018-07-07T05:13:17.282Z,62.78
2018-07-07T05:14:16.444Z,62.90
2018-07-07T05:15:16.275Z,62.90
2018-07-07T05:16:16.273Z,62.24
2018-07-07T05:17:16.300Z,62.24
2018-07-07T05:18:16.369Z,62.52
2018-07-07T05:19:16.320Z,63.86
2018-07-07T05:20:17.217Z,65.30
2018-07-07T05:21:16.220Z,64.43
2018-07-07T05:22:16.265Z,64.62
2018-07-07T05:23:16.190Z,64.34
2018-07-07T05:24:16.212Z,66.63
2018-07-07T05:25:16.342Z,65.97
2018-07-07T05:26:16.164Z,64.62
2018-07-07T05:27:16.178Z,64.62
2018-07-07T05:28:16.308Z,64.05
2018-07-07T05:29:16.175Z,63.67
2018-07-07T05:30:16.117Z,63.89
2018-07-07T05:31:16.107Z,66.28
2018-07-07T05:32:16.435Z,66.47
2018-07-07T05:33:16.084Z,66.09
2018-07-07T05:34:16.299Z,66.28
2018-07-07T05:35:16.065Z,69.06
2018-07-07T05:36:16.059Z,68.01
2018-07-07T05:37:16.067Z,66.47
2018-07-07T05:38:16.030Z,65.52
2018-07-07T05:39:16.018Z,65.52
2018-07-07T05:40:16.264Z,65.23
2018-07-07T05:41:15.996Z,65.81
2018-07-07T05:42:15.989Z,64.47
2018-07-07T05:43:15.996Z,64.37
2018-07-07T05:44:15.970Z,64.18
2018-07-07T05:45:15.953Z,64.47
2018-07-07T05:46:15.962Z,64.50
2018-07-07T05:47:15.992Z,64.31
2018-07-07T05:48:15.925Z,64.59
2018-07-07T05:49:15.908Z,64.12
2018-07-07T05:50:15.901Z,64.69
2018-07-07T05:51:15.895Z,64.22
2018-07-07T05:52:15.873Z,64.50
2018-07-07T05:53:15.873Z,66.70
2018-07-07T05:54:15.861Z,65.84
2018-07-07T05:55:15.841Z,64.59
2018-07-07T05:56:15.835Z,64.31
2018-07-07T05:57:15.828Z,65.45
2018-07-07T05:58:15.849Z,66.61
2018-07-07T05:59:15.797Z,66.89
2018-07-07T06:00:15.802Z,67.94
2018-07-07T06:01:15.788Z,66.80
2018-07-07T06:02:15.780Z,66.45
2018-07-07T06:03:15.767Z,66.70
2018-07-07T06:04:15.748Z,66.35
2018-07-07T06:05:15.740Z,65.78
2018-07-07T06:06:15.720Z,65.49
2018-07-07T06:07:15.730Z,66.45
2018-07-07T06:08:16.156Z,68.07
2018-07-07T06:09:15.716Z,67.79
2018-07-07T06:10:15.695Z,66.93
2018-07-07T06:11:15.677Z,67.02
2018-07-07T06:12:15.683Z,66.16
2018-07-07T06:13:15.665Z,67.50
2018-07-07T06:14:15.755Z,68.46
2018-07-07T06:15:15.642Z,67.41
2018-07-07T06:16:15.628Z,67.79
2018-07-07T06:17:15.623Z,66.93
2018-07-07T06:18:15.663Z,66.83
2018-07-07T06:19:15.669Z,65.97
2018-07-07T06:20:15.596Z,66.19
2018-07-07T06:21:15.582Z,65.81
2018-07-07T06:22:15.579Z,65.14
2018-07-07T06:23:15.568Z,65.05
2018-07-07T06:24:15.559Z,64.85
2018-07-07T06:25:15.682Z,65.71
2018-07-07T06:26:15.544Z,65.14
2018-07-07T06:27:15.525Z,66.48
2018-07-07T06:28:15.502Z,66.29
2018-07-07T06:29:15.495Z,66.58
2018-07-07T06:30:15.509Z,66.00
2018-07-07T06:31:15.481Z,66.67
2018-07-07T06:32:15.523Z,66.38
2018-07-07T06:33:15.469Z,67.91
2018-07-07T06:34:15.440Z,68.78
2018-07-07T06:35:15.443Z,68.87
2018-07-07T06:36:15.429Z,69.07
2018-07-07T06:37:15.499Z,68.78
2018-07-07T06:38:15.412Z,68.97
2018-07-07T06:39:15.399Z,69.07
2018-07-07T06:40:15.395Z,68.59
2018-07-07T06:41:15.389Z,68.01
2018-07-07T06:42:15.376Z,68.87
2018-07-07T06:43:15.375Z,68.49
2018-07-07T06:44:15.362Z,68.97
2018-07-07T06:45:15.349Z,69.54
2018-07-07T06:46:15.347Z,70.21
2018-07-07T06:47:15.360Z,69.64
2018-07-07T06:48:15.325Z,68.87
2018-07-07T06:49:15.307Z,69.35
2018-07-07T06:50:15.339Z,70.41
2018-07-07T06:51:15.292Z,70.21
2018-07-07T06:52:15.285Z,69.45
2018-07-07T06:53:15.283Z,69.64
2018-07-07T06:54:15.253Z,69.35
2018-07-07T06:55:15.258Z,69.64
2018-07-07T06:56:15.236Z,69.45
2018-07-07T06:57:15.238Z,69.07
2018-07-07T06:58:15.272Z,68.97
2018-07-07T06:59:15.649Z,68.87
2018-07-07T07:00:15.201Z,69.17
2018-07-07T07:01:15.196Z,68.11
2018-07-07T07:02:15.185Z,68.21
2018-07-07T07:03:15.176Z,68.40
2018-07-07T07:04:15.167Z,68.40
2018-07-07T07:05:15.170Z,68.52
2018-07-07T07:06:15.137Z,68.81
2018-07-07T07:07:15.134Z,68.43
2018-07-07T07:08:15.131Z,69.10
2018-07-07T07:09:15.128Z,68.91
2018-07-07T07:10:15.147Z,68.43
2018-07-07T07:11:15.096Z,68.62
2018-07-07T07:12:15.126Z,69.01
2018-07-07T07:13:15.077Z,68.91
2018-07-07T07:14:15.072Z,68.81
2018-07-07T07:15:15.076Z,68.52
2018-07-07T07:16:15.056Z,68.14
2018-07-07T07:17:15.125Z,68.05
2018-07-07T07:18:15.041Z,67.95
2018-07-07T07:19:15.031Z,67.57
2018-07-07T07:20:15.019Z,66.71
2018-07-07T07:21:15.020Z,67.38
2018-07-07T07:22:15.001Z,67.09
2018-07-07T07:23:14.996Z,66.42
2018-07-07T07:24:14.974Z,66.13
2018-07-07T07:25:14.994Z,66.51
2018-07-07T07:26:14.996Z,66.45
2018-07-07T07:27:14.946Z,66.06
2018-07-07T07:28:14.988Z,65.68
2018-07-07T07:29:14.937Z,65.97
2018-07-07T07:30:14.939Z,65.97
2018-07-07T07:31:14.918Z,65.11
2018-07-07T07:32:15.006Z,64.63
2018-07-07T07:33:14.930Z,64.53
2018-07-07T07:34:14.914Z,64.05
2018-07-07T07:35:14.869Z,64.25
2018-07-07T07:36:14.875Z,63.86
2018-07-07T07:37:14.868Z,64.92
2018-07-07T07:38:14.878Z,65.30
2018-07-07T07:39:14.866Z,64.72
2018-07-07T07:40:14.846Z,64.15
2018-07-07T07:41:14.823Z,63.89
2018-07-07T07:42:14.824Z,64.63
2018-07-07T07:43:14.827Z,64.05
2018-07-07T07:44:15.149Z,64.56
2018-07-07T07:45:14.787Z,64.66
2018-07-07T07:46:14.794Z,64.66
2018-07-07T07:47:14.770Z,64.37
2018-07-07T07:48:14.767Z,63.89
2018-07-07T07:49:14.760Z,64.18
2018-07-07T07:50:14.764Z,64.28
2018-07-07T07:51:14.741Z,63.51
2018-07-07T07:52:14.730Z,63.32
2018-07-07T07:53:14.724Z,63.03
2018-07-07T07:54:14.845Z,62.07
2018-07-07T07:55:14.826Z,61.78
2018-07-07T07:56:14.696Z,61.59
2018-07-07T07:57:14.682Z,61.52
2018-07-07T07:58:14.666Z,60.95
2018-07-07T07:59:14.672Z,59.80
2018-07-07T08:00:14.670Z,59.41
2018-07-07T08:01:14.681Z,58.84
2018-07-07T08:02:14.645Z,58.84
2018-07-07T08:03:14.636Z,59.41
2018-07-07T08:04:14.641Z,59.70
2018-07-07T08:05:14.619Z,59.41
2018-07-07T08:06:14.673Z,58.94
2018-07-07T08:07:14.599Z,58.94
2018-07-07T08:08:14.584Z,58.84
2018-07-07T08:09:14.589Z,58.84
2018-07-07T08:10:14.571Z,58.94
2018-07-07T08:11:14.563Z,58.64
2018-07-07T08:12:14.595Z,59.03
2018-07-07T08:13:14.565Z,59.61
2018-07-07T08:14:14.617Z,59.51
2018-07-07T08:15:14.537Z,59.51
2018-07-07T08:16:14.569Z,59.61
2018-07-07T08:17:14.517Z,59.80
2018-07-07T08:18:14.508Z,59.51
2018-07-07T08:19:14.501Z,59.03
2018-07-07T08:20:14.490Z,58.87
2018-07-07T08:21:14.558Z,58.58
2018-07-07T08:22:14.473Z,58.39
2018-07-07T08:23:14.472Z,57.62
2018-07-07T08:24:14.469Z,57.71
2018-07-07T08:25:14.461Z,58.48
2018-07-07T08:26:14.452Z,58.77
2018-07-07T08:27:14.462Z,58.20
2018-07-07T08:28:14.507Z,57.90
2018-07-07T08:29:14.430Z,57.81
2018-07-07T08:30:14.401Z,57.90
2018-07-07T08:31:14.409Z,57.45
2018-07-07T08:32:14.391Z,56.98
2018-07-07T08:33:14.386Z,56.98
2018-07-07T08:34:14.422Z,57.07
2018-07-07T08:35:14.359Z,56.68
2018-07-07T08:36:14.360Z,55.91
2018-07-07T08:37:14.503Z,55.91
2018-07-07T08:38:14.361Z,56.33
2018-07-07T08:39:14.346Z,56.33
2018-07-07T08:40:14.344Z,56.43
2018-07-07T08:41:14.330Z,56.43
2018-07-07T08:42:14.399Z,56.43
2018-07-07T08:43:14.472Z,55.88
2018-07-07T08:44:14.309Z,55.98
2018-07-07T08:45:14.311Z,56.16
2018-07-07T08:46:14.290Z,55.20
2018-07-07T08:47:14.469Z,54.63
2018-07-07T08:48:14.531Z,55.13
2018-07-07T08:49:14.575Z,55.33
2018-07-07T08:50:14.458Z,52.95
2018-07-07T08:51:14.352Z,53.23
2018-07-07T08:52:14.266Z,53.45
2018-07-07T08:53:14.265Z,51.92
2018-07-07T08:54:14.520Z,52.01
2018-07-07T08:55:14.286Z,51.17
2018-07-07T08:56:14.436Z,50.30
2018-07-07T08:57:14.251Z,49.91
2018-07-07T08:58:14.238Z,51.10
2018-07-07T08:59:14.239Z,49.75
2018-07-07T09:00:14.230Z,49.94
2018-07-07T09:01:14.233Z,50.52
2018-07-07T09:02:14.258Z,49.75
2018-07-07T09:03:14.224Z,49.96
2018-07-07T09:04:14.232Z,49.80
2018-07-07T09:05:14.231Z,50.40
2018-07-07T09:06:14.227Z,48.59
2018-07-07T09:07:14.258Z,45.21
2018-07-07T09:08:14.211Z,45.01
2018-07-07T09:09:14.217Z,44.22
2018-07-07T09:10:14.220Z,43.93
2018-07-07T09:11:14.221Z,45.28
2018-07-07T09:12:14.246Z,45.01
2018-07-07T09:13:14.377Z,45.83
2018-07-07T09:14:14.230Z,44.57
2018-07-07T09:15:14.217Z,44.12
2018-07-07T09:16:14.220Z,43.55
2018-07-07T09:17:14.211Z,43.46
2018-07-07T09:18:14.246Z,42.68
2018-07-07T09:19:14.359Z,41.82
2018-07-07T09:20:14.214Z,41.99
2018-07-07T09:21:14.235Z,41.48
2018-07-07T09:22:14.222Z,42.52
2018-07-07T09:23:14.221Z,42.79
2018-07-07T09:24:14.229Z,43.18
2018-07-07T09:25:14.238Z,43.88
2018-07-07T09:26:14.233Z,44.87
2018-07-07T09:27:14.237Z,42.86
2018-07-07T09:28:14.219Z,42.86
2018-07-07T09:29:14.255Z,42.10
2018-07-07T09:30:14.276Z,44.45
2018-07-07T09:31:14.235Z,44.09
2018-07-07T09:32:14.231Z,41.95
2018-07-07T09:33:14.265Z,38.87
2018-07-07T09:34:14.240Z,38.27
2018-07-07T09:35:14.254Z,38.15
2018-07-07T09:36:14.280Z,40.00
2018-07-07T09:37:14.267Z,40.67
2018-07-07T09:38:14.252Z,41.35
2018-07-07T09:39:14.284Z,40.09
2018-07-07T09:40:14.259Z,39.41
2018-07-07T09:41:14.269Z,41.08
2018-07-07T09:42:14.268Z,40.11
2018-07-07T09:43:14.292Z,38.85
2018-07-07T09:44:14.286Z,38.07
2018-07-07T09:45:14.275Z,38.76
2018-07-07T09:46:14.281Z,40.31
2018-07-07T09:47:14.278Z,39.65
2018-07-07T09:48:14.719Z,39.08
2018-07-07T09:49:14.280Z,37.92
2018-07-07T09:50:14.291Z,38.89
2018-07-07T09:51:14.293Z,38.40
2018-07-07T09:52:14.308Z,38.29
2018-07-07T09:53:14.343Z,37.79
2018-07-07T09:54:14.308Z,37.87
2018-07-07T09:55:14.308Z,39.22
2018-07-07T09:56:14.375Z,38.64
2018-07-07T09:57:14.321Z,38.54
2018-07-07T09:58:14.308Z,38.46
2018-07-07T09:59:14.349Z,38.96
2018-07-07T10:00:14.734Z,39.47
2018-07-07T10:01:14.340Z,40.19
2018-07-07T10:02:14.333Z,39.82
2018-07-07T10:03:14.318Z,36.85
2018-07-07T10:04:14.336Z,36.26
2018-07-07T10:05:14.344Z,35.29
2018-07-07T10:06:14.346Z,35.49
2018-07-07T10:07:14.342Z,33.73
2018-07-07T10:08:14.402Z,33.81
2018-07-07T10:09:14.363Z,34.19
2018-07-07T10:10:14.359Z,34.98
2018-07-07T10:11:14.356Z,34.20
2018-07-07T10:12:14.361Z,33.59
2018-07-07T10:13:14.367Z,34.66
2018-07-07T10:14:14.377Z,35.32
2018-07-07T10:15:14.388Z,36.40
2018-07-07T10:16:14.376Z,35.94
2018-07-07T10:17:14.374Z,35.76
2018-07-07T10:18:14.525Z,34.20
2018-07-07T10:19:14.446Z,33.33
2018-07-07T10:20:14.403Z,32.45
2018-07-07T10:21:14.400Z,34.01
2018-07-07T10:22:14.398Z,33.23
2018-07-07T10:23:14.401Z,34.53
2018-07-07T10:24:14.432Z,31.82
2018-07-07T10:25:14.421Z,31.82
2018-07-07T10:26:14.448Z,31.22
2018-07-07T10:27:14.416Z,32.68
2018-07-07T10:28:14.435Z,31.71
2018-07-07T10:29:14.441Z,33.17
2018-07-07T10:30:14.444Z,31.71
2018-07-07T10:31:14.792Z,32.68
2018-07-07T10:32:14.444Z,31.71
2018-07-07T10:33:14.463Z,32.81
2018-07-07T10:34:14.461Z,33.51
2018-07-07T10:35:15.249Z,30.31
2018-07-07T10:36:14.469Z,29.42
2018-07-07T10:37:14.489Z,29.69
2018-07-07T10:38:14.542Z,29.96
2018-07-07T10:39:14.489Z,30.33
2018-07-07T10:40:14.484Z,31.79
2018-07-07T10:41:14.495Z,32.78
2018-07-07T10:42:14.543Z,33.11
2018-07-07T10:43:14.510Z,32.73
2018-07-07T10:44:14.513Z,30.78
2018-07-07T10:45:14.515Z,30.00
2018-07-07T10:46:14.548Z,29.60
2018-07-07T10:47:14.565Z,29.99
2018-07-07T10:48:14.541Z,29.78
2018-07-07T10:49:14.523Z,29.78
2018-07-07T10:50:14.547Z,30.36
2018-07-07T10:51:14.546Z,29.76
2018-07-07T10:52:14.594Z,29.66
2018-07-07T10:53:14.561Z,29.46
2018-07-07T10:54:14.563Z,30.91
2018-07-07T10:55:14.606Z,30.15
2018-07-07T10:56:14.569Z,31.41
2018-07-07T10:57:14.584Z,30.55
2018-07-07T10:58:14.653Z,30.19
2018-07-07T10:59:14.593Z,28.55
2018-07-07T11:00:14.589Z,27.95
2018-07-07T11:01:14.598Z,27.86
2018-07-07T11:02:14.606Z,29.81
2018-07-07T11:03:14.603Z,29.13
2018-07-07T11:04:14.672Z,29.71
2018-07-07T11:05:14.616Z,28.94
2018-07-07T11:06:14.639Z,28.26
2018-07-07T11:07:14.635Z,28.74
2018-07-07T11:08:14.633Z,28.54
2018-07-07T11:09:14.645Z,29.32
2018-07-07T11:10:14.657Z,29.32
2018-07-07T11:11:14.723Z,28.83
2018-07-07T11:12:14.667Z,28.07
2018-07-07T11:13:14.663Z,27.56
2018-07-07T11:14:14.660Z,27.08
2018-07-07T11:15:14.673Z,27.36
2018-07-07T11:16:14.669Z,28.43
2018-07-07T11:17:14.712Z,28.05
2018-07-07T11:18:14.995Z,28.64
2018-07-07T11:19:14.694Z,28.93
2018-07-07T11:20:14.704Z,30.11
2018-07-07T11:21:14.706Z,29.82
2018-07-07T11:22:14.720Z,27.48
2018-07-07T11:23:14.736Z,28.55
2018-07-07T11:24:14.721Z,27.89
2018-07-07T11:25:14.721Z,27.01
2018-07-07T11:26:14.726Z,27.20
2018-07-07T11:27:14.746Z,27.89
2018-07-07T11:28:14.886Z,26.80
2018-07-07T11:29:14.755Z,26.31
2018-07-07T11:30:14.761Z,27.68
2018-07-07T11:31:14.763Z,27.48
2018-07-07T11:32:14.773Z,27.00
2018-07-07T11:33:14.769Z,27.97
2018-07-07T11:34:14.788Z,27.58
2018-07-07T11:35:14.811Z,27.20
2018-07-07T11:36:14.805Z,27.01
2018-07-07T11:37:14.807Z,26.13
2018-07-07T11:38:14.795Z,27.70
2018-07-07T11:39:14.812Z,28.50
2018-07-07T11:40:14.889Z,27.34
2018-07-07T11:41:14.834Z,28.53
2018-07-07T11:42:14.862Z,28.64
2018-07-07T11:43:14.839Z,24.42
2018-07-07T11:44:14.845Z,24.02
2018-07-07T11:45:14.853Z,23.91
2018-07-07T11:46:14.867Z,24.10
2018-07-07T11:47:14.863Z,24.38
2018-07-07T11:48:14.871Z,25.34
2018-07-07T11:49:14.870Z,25.92
2018-07-07T11:50:14.942Z,25.64
2018-07-07T11:51:14.882Z,26.31
2018-07-07T11:52:14.893Z,25.53
2018-07-07T11:53:14.891Z,25.81
2018-07-07T11:54:14.920Z,25.69
2018-07-07T11:55:14.913Z,26.75
2018-07-07T11:56:14.904Z,27.61
2018-07-07T11:57:14.960Z,27.69
2018-07-07T11:58:14.917Z,28.65
2018-07-07T11:59:14.927Z,28.94
2018-07-07T12:00:14.982Z,29.12
2018-07-07T12:01:14.926Z,29.50
2018-07-07T12:02:14.929Z,29.69
2018-07-07T12:03:14.922Z,30.55
2018-07-07T12:04:14.936Z,30.54
2018-07-07T12:05:14.927Z,31.31
2018-07-07T12:06:14.968Z,30.92
2018-07-07T12:07:14.936Z,31.70
2018-07-07T12:08:14.975Z,31.99
2018-07-07T12:09:14.920Z,31.59
2018-07-07T12:10:14.934Z,32.56
2018-07-07T12:11:14.987Z,32.92
2018-07-07T12:12:14.924Z,32.92
2018-07-07T12:13:14.926Z,33.10
2018-07-07T12:14:14.927Z,34.36
2018-07-07T12:15:14.920Z,34.27
2018-07-07T12:16:15.364Z,33.47
2018-07-07T12:17:14.921Z,33.47
2018-07-07T12:18:14.918Z,34.05
2018-07-07T12:19:14.929Z,34.15
2018-07-07T12:20:14.922Z,34.27
2018-07-07T12:21:14.903Z,34.07
2018-07-07T12:22:14.947Z,33.95
2018-07-07T12:23:14.907Z,34.54
2018-07-07T12:24:14.910Z,34.42
2018-07-07T12:25:14.897Z,34.63
2018-07-07T12:26:14.920Z,35.29
2018-07-07T12:27:14.954Z,35.49
2018-07-07T12:28:14.893Z,35.58
2018-07-07T12:29:14.900Z,35.20
2018-07-07T12:30:14.896Z,35.58
2018-07-07T12:31:14.941Z,34.91
2018-07-07T12:32:14.882Z,35.10
2018-07-07T12:33:14.920Z,35.29
2018-07-07T12:34:14.880Z,35.29
2018-07-07T12:35:14.866Z,35.49
2018-07-07T12:36:14.872Z,35.88
2018-07-07T12:37:14.917Z,35.68
2018-07-07T12:38:14.857Z,36.16
2018-07-07T12:39:14.854Z,36.24
2018-07-07T12:40:14.856Z,36.15
2018-07-07T12:41:14.856Z,35.76
2018-07-07T12:42:14.903Z,35.47
2018-07-07T12:43:14.884Z,35.76
2018-07-07T12:44:14.847Z,35.08
2018-07-07T12:45:14.879Z,35.95
2018-07-07T12:46:14.853Z,35.66
2018-07-07T12:47:14.853Z,34.70
2018-07-07T12:48:14.829Z,35.08
2018-07-07T12:49:15.361Z,35.28
2018-07-07T12:50:14.824Z,35.18
2018-07-07T12:51:14.839Z,34.79
2018-07-07T12:52:14.821Z,35.28